createdAt,value
2019-05-09T17:30:39.099Z,41.91
2019-05-09T17:31:39.094Z,41.23
2019-05-09T17:32:39.087Z,41.89
2019-05-09T17:33:39.082Z,40.93
2019-05-09T17:34:42.162Z,41.48
2019-05-09T17:35:39.066Z,41.13
2019-05-09T17:36:39.060Z,42.01
2019-05-09T17:37:39.051Z,41.00
2019-05-09T17:38:39.046Z,41.53
2019-05-09T17:39:39.041Z,40.78
2019-05-09T17:40:39.431Z,40.41
2019-05-09T17:41:39.030Z,40.49
2019-05-09T17:42:39.023Z,41.61
2019-05-09T17:43:39.015Z,41.38
2019-05-09T17:44:39.008Z,41.27
2019-05-09T17:45:41.959Z,41.49
2019-05-09T17:46:39.068Z,41.19
2019-05-09T17:47:38.990Z,41.25
2019-05-09T17:48:38.984Z,41.55
2019-05-09T17:49:38.978Z,41.08
2019-05-09T17:50:38.976Z,41.60
2019-05-09T17:51:38.966Z,41.51
2019-05-09T17:52:38.959Z,41.02
2019-05-09T17:53:38.975Z,41.08
2019-05-09T17:54:38.948Z,41.55
2019-05-09T17:56:38.933Z,41.20
2019-05-09T17:59:08.609Z,41.59
2019-05-09T18:00:08.177Z,41.30
2019-05-09T18:01:07.891Z,41.13
2019-05-09T18:02:08.696Z,41.08
2019-05-09T18:03:06.624Z,41.17
2019-05-09T18:04:08.862Z,42.01
2019-05-09T18:05:07.781Z,41.01
2019-05-09T18:06:08.289Z,41.46
2019-05-09T18:07:08.767Z,41.28
2019-05-09T18:08:08.035Z,41.18
2019-05-09T18:09:08.417Z,41.07
2019-05-09T18:10:07.759Z,40.99
2019-05-09T18:11:09.155Z,41.65
2019-05-09T18:12:08.250Z,41.32
2019-05-09T18:13:07.945Z,40.72
2019-05-09T18:14:08.083Z,41.36
2019-05-09T18:15:07.673Z,41.35
2019-05-09T18:16:06.541Z,41.08
2019-05-09T18:17:06.533Z,40.93
2019-05-09T18:18:06.528Z,40.69
2019-05-09T18:19:08.212Z,41.24
2019-05-09T18:20:08.075Z,40.73
2019-05-09T18:21:08.483Z,41.67
2019-05-09T18:22:08.231Z,40.96
2019-05-09T18:23:08.238Z,40.96
2019-05-09T18:24:08.677Z,40.68
2019-05-09T18:25:08.319Z,40.72
2019-05-09T18:26:07.934Z,40.79
2019-05-09T18:27:07.683Z,40.67
2019-05-09T18:28:06.488Z,40.35
2019-05-09T18:29:06.479Z,40.35
2019-05-09T18:30:06.473Z,40.55
2019-05-09T18:31:07.960Z,40.34
2019-05-09T18:32:07.707Z,40.96
2019-05-09T18:33:07.517Z,40.45
2019-05-09T18:34:07.788Z,40.86
2019-05-09T18:35:08.105Z,40.38
2019-05-09T18:36:06.461Z,40.49
2019-05-09T18:37:07.983Z,40.89
2019-05-09T18:38:07.954Z,40.95
2019-05-09T18:39:07.726Z,40.48
2019-05-09T18:40:08.338Z,40.58
2019-05-09T18:41:07.956Z,40.66
2019-05-09T18:42:08.522Z,40.91
2019-05-09T18:43:07.726Z,40.66
2019-05-09T18:44:07.481Z,40.64
2019-05-09T18:45:07.915Z,40.77
2019-05-09T18:46:08.348Z,40.53
2019-05-09T18:47:07.830Z,40.91
2019-05-09T18:48:08.423Z,40.92
2019-05-09T18:49:06.376Z,40.62
2019-05-09T18:50:06.373Z,41.02
2019-05-09T18:51:06.366Z,40.53
2019-05-09T18:52:06.565Z,40.91
2019-05-09T18:53:06.353Z,40.54
2019-05-09T18:54:06.348Z,41.08
2019-05-09T18:55:06.338Z,40.86
2019-05-09T18:56:06.333Z,40.77
2019-05-09T18:57:06.376Z,40.88
2019-05-09T18:58:06.337Z,40.60
2019-05-09T18:59:06.312Z,40.88
2019-05-09T19:00:06.305Z,40.77
2019-05-09T19:01:06.300Z,40.66
2019-05-09T19:02:06.294Z,40.84
2019-05-09T19:03:06.285Z,40.62
2019-05-09T19:04:06.277Z,40.72
2019-05-09T19:05:06.275Z,40.78
2019-05-09T19:06:06.264Z,40.79
2019-05-09T19:07:21.302Z,40.85
2019-05-09T19:09:33.972Z,40.73
2019-05-09T19:10:33.973Z,41.01
2019-05-09T19:11:34.052Z,40.81
2019-05-09T19:12:33.955Z,41.15
2019-05-09T19:13:33.949Z,40.89
2019-05-09T19:14:33.940Z,41.09
2019-05-09T19:15:33.956Z,40.67
2019-05-09T19:16:33.930Z,40.87
2019-05-09T19:19:01.646Z,41.08
2019-05-09T19:20:01.645Z,40.95
2019-05-09T19:21:01.632Z,41.30
2019-05-09T19:23:01.621Z,40.45
2019-05-09T19:24:01.626Z,40.51
2019-05-09T19:25:01.607Z,40.45
2019-05-09T19:26:01.603Z,40.57
2019-05-09T19:27:01.593Z,40.47
2019-05-09T19:28:01.587Z,40.90
2019-05-09T19:29:01.783Z,40.77
2019-05-09T19:30:01.684Z,40.80
2019-05-09T19:31:01.581Z,40.56
2019-05-09T19:32:01.575Z,40.66
2019-05-09T19:33:01.567Z,40.86
2019-05-09T19:34:01.595Z,40.76
2019-05-09T19:35:01.558Z,40.92
2019-05-09T19:36:01.550Z,40.48
2019-05-09T19:37:01.547Z,40.47
2019-05-09T19:38:01.536Z,40.63
2019-05-09T19:39:01.533Z,40.50
2019-05-09T19:40:01.527Z,40.70
2019-05-09T19:41:01.571Z,40.61
2019-05-09T19:42:01.515Z,40.79
2019-05-09T19:43:01.508Z,40.51
2019-05-09T19:44:01.504Z,40.81
2019-05-09T19:45:01.525Z,40.53
2019-05-09T19:46:01.497Z,40.70
2019-05-09T19:47:02.072Z,40.73
2019-05-09T19:48:01.477Z,41.20
2019-05-09T19:49:01.476Z,40.82
2019-05-09T19:50:01.746Z,40.63
2019-05-09T19:51:01.467Z,40.78
2019-05-09T19:52:01.461Z,40.70
2019-05-09T19:53:01.457Z,40.95
2019-05-09T19:54:01.448Z,40.82
2019-05-09T19:55:01.443Z,40.88
2019-05-09T19:56:01.437Z,40.44
2019-05-09T19:57:01.430Z,40.63
2019-05-09T19:59:29.149Z,40.69
2019-05-09T20:00:29.159Z,40.85
2019-05-09T20:01:29.137Z,41.20
2019-05-09T20:02:29.129Z,40.44
2019-05-09T20:03:29.126Z,40.58
2019-05-09T20:04:29.115Z,40.86
2019-05-09T20:05:29.309Z,41.05
2019-05-09T20:08:02.048Z,40.49
2019-05-09T20:09:02.066Z,41.03
2019-05-09T20:10:02.055Z,40.93
2019-05-09T20:11:02.040Z,40.48
2019-05-09T20:12:02.103Z,41.03
2019-05-09T20:13:02.027Z,40.94
2019-05-09T20:14:02.035Z,40.85
2019-05-09T20:16:02.057Z,40.60
2019-05-09T20:17:02.029Z,40.92
2019-05-09T20:18:02.043Z,40.82
2019-05-09T20:19:02.036Z,40.89
2019-05-09T20:20:02.053Z,40.46
2019-05-09T20:22:02.015Z,40.81
2019-05-09T20:23:02.011Z,40.41
2019-05-09T20:24:02.003Z,40.42
2019-05-09T20:25:02.019Z,40.93
2019-05-09T20:26:02.014Z,40.67
2019-05-09T20:27:02.003Z,40.74
2019-05-09T20:28:01.979Z,40.54
2019-05-09T20:29:01.985Z,40.50
2019-05-09T20:30:02.008Z,41.05
2019-05-09T20:31:01.996Z,40.77
2019-05-09T20:32:01.954Z,40.66
2019-05-09T20:33:01.959Z,40.87
2019-05-09T20:34:01.941Z,40.66
2019-05-09T20:35:01.944Z,40.84
2019-05-09T20:36:01.950Z,40.67
2019-05-09T20:37:01.947Z,40.97
2019-05-09T20:38:01.912Z,40.77
2019-05-09T20:39:01.933Z,40.47
2019-05-09T20:40:01.900Z,40.63
2019-05-09T20:41:01.896Z,40.77
2019-05-09T20:42:01.889Z,40.68
2019-05-09T20:43:01.883Z,40.70
2019-05-09T20:44:01.874Z,40.45
2019-05-09T20:45:01.866Z,40.81
2019-05-09T20:46:01.860Z,40.93
2019-05-09T20:47:01.854Z,40.54
2019-05-09T20:48:01.847Z,40.53
2019-05-09T20:49:01.838Z,40.47
2019-05-09T20:51:01.828Z,41.00
2019-05-09T20:52:01.874Z,40.46
2019-05-09T20:53:09.456Z,40.42
2019-05-09T20:55:29.530Z,40.78
2019-05-09T20:56:29.525Z,40.64
2019-05-09T20:57:29.518Z,40.70
2019-05-09T20:59:02.717Z,40.41
2019-05-09T20:59:29.505Z,40.47
2019-05-09T21:01:29.494Z,40.95
2019-05-09T21:03:29.478Z,40.58
2019-05-09T21:04:29.472Z,40.55
2019-05-09T21:05:29.466Z,40.71
2019-05-09T21:06:29.458Z,40.41
2019-05-09T21:07:29.453Z,40.47
2019-05-09T21:08:29.443Z,40.37
2019-05-09T21:09:29.442Z,40.46
2019-05-09T21:10:29.430Z,40.56
2019-05-09T21:11:29.425Z,40.47
2019-05-09T21:12:29.419Z,40.33
2019-05-09T21:13:29.410Z,40.71
2019-05-09T21:14:29.408Z,40.57
2019-05-09T21:15:29.399Z,40.45
2019-05-09T21:16:29.397Z,40.41
2019-05-09T21:17:29.387Z,40.53
2019-05-09T21:18:29.483Z,40.66
2019-05-09T21:19:29.373Z,40.58
2019-05-09T21:20:29.367Z,40.61
2019-05-09T21:21:29.361Z,40.55
2019-05-09T21:22:29.355Z,40.47
2019-05-09T21:23:29.353Z,40.49
2019-05-09T21:24:29.343Z,40.85
2019-05-09T21:25:33.018Z,40.54
2019-05-09T21:26:29.336Z,40.81
2019-05-09T21:27:29.327Z,40.84
2019-05-09T21:28:29.317Z,40.42
2019-05-09T21:29:29.314Z,40.60
2019-05-09T21:30:29.303Z,40.40
2019-05-09T21:31:29.297Z,40.38
2019-05-09T21:32:29.301Z,40.46
2019-05-09T21:33:29.333Z,40.39
2019-05-09T21:35:29.272Z,40.46
2019-05-09T21:36:29.268Z,40.60
2019-05-09T21:37:29.260Z,40.66
2019-05-09T21:38:29.292Z,40.47
2019-05-09T21:39:29.250Z,40.55
2019-05-09T21:40:29.299Z,40.63
2019-05-09T21:41:29.242Z,40.68
2019-05-09T21:42:29.246Z,40.40
2019-05-09T21:43:29.227Z,40.71
2019-05-09T21:44:29.220Z,40.38
2019-05-09T21:45:29.216Z,40.33
2019-05-09T21:46:29.208Z,40.48
2019-05-09T21:47:29.225Z,40.36
2019-05-09T21:48:29.198Z,40.54
2019-05-09T21:49:29.193Z,40.49
2019-05-09T21:50:29.185Z,40.46
2019-05-09T21:51:29.181Z,40.74
2019-05-09T21:52:29.174Z,40.48
2019-05-09T21:53:40.579Z,40.54
2019-05-09T21:55:56.881Z,40.40
2019-05-09T21:56:56.885Z,40.70
2019-05-09T21:57:56.869Z,40.29
2019-05-09T21:58:56.862Z,40.48
2019-05-09T21:59:56.858Z,40.66
2019-05-09T22:00:56.855Z,40.49
2019-05-09T22:01:56.848Z,40.32
2019-05-09T22:02:56.841Z,40.45
2019-05-09T22:03:56.833Z,40.48
2019-05-09T22:04:56.830Z,40.53
2019-05-09T22:05:56.821Z,40.74
2019-05-09T22:06:56.814Z,40.51
2019-05-09T22:07:56.807Z,40.37
2019-05-09T22:08:56.800Z,40.43
2019-05-09T22:10:56.788Z,40.41
2019-05-09T22:11:56.783Z,40.51
2019-05-09T22:12:56.777Z,40.41
2019-05-09T22:15:24.495Z,40.53
2019-05-09T22:16:24.492Z,40.36
2019-05-09T22:17:24.481Z,40.33
2019-05-09T22:18:24.527Z,40.58
2019-05-09T22:19:24.469Z,40.34
2019-05-09T22:20:24.466Z,40.29
2019-05-09T22:21:24.457Z,40.76
2019-05-09T22:22:24.453Z,40.36
2019-05-09T22:23:24.445Z,40.56
2019-05-09T22:24:24.446Z,40.42
2019-05-09T22:25:24.436Z,40.44
2019-05-09T22:26:24.430Z,40.37
2019-05-09T22:27:24.421Z,40.40
2019-05-09T22:28:24.414Z,40.78
2019-05-09T22:29:24.408Z,40.49
2019-05-09T22:30:24.404Z,40.53
2019-05-09T22:31:24.396Z,40.34
2019-05-09T22:32:24.418Z,40.49
2019-05-09T22:33:24.386Z,40.36
2019-05-09T22:34:24.379Z,40.40
2019-05-09T22:35:24.373Z,40.55
2019-05-09T22:36:24.367Z,40.51
2019-05-09T22:37:24.359Z,40.32
2019-05-09T22:38:24.384Z,40.30
2019-05-09T22:39:24.377Z,40.39
2019-05-09T22:40:24.382Z,40.34
2019-05-09T22:41:24.361Z,40.43
2019-05-09T22:42:24.356Z,40.37
2019-05-09T22:43:24.350Z,40.52
2019-05-09T22:44:24.342Z,40.42
2019-05-09T22:45:24.336Z,40.30
2019-05-09T22:46:24.330Z,40.43
2019-05-09T22:47:24.322Z,40.33
2019-05-09T22:48:24.313Z,40.45
2019-05-09T22:49:24.314Z,40.38
2019-05-09T22:51:52.235Z,40.35
2019-05-09T22:52:52.020Z,40.53
2019-05-09T22:53:52.014Z,40.32
2019-05-09T22:54:52.010Z,40.34
2019-05-09T22:55:52.003Z,40.41
2019-05-09T22:56:51.998Z,40.41
2019-05-09T22:57:51.990Z,40.35
2019-05-09T22:58:51.983Z,40.38
2019-05-09T22:59:51.975Z,40.42
2019-05-09T23:00:51.968Z,40.40
2019-05-09T23:01:51.963Z,40.27
2019-05-09T23:02:51.957Z,40.28
2019-05-09T23:03:51.949Z,40.42
2019-05-09T23:04:51.944Z,40.23
2019-05-09T23:05:51.937Z,40.28
2019-05-09T23:06:51.932Z,40.27
2019-05-09T23:07:51.937Z,40.32
2019-05-09T23:08:51.915Z,40.24
2019-05-09T23:09:51.913Z,40.34
2019-05-09T23:10:53.517Z,40.28
2019-05-09T23:11:51.899Z,40.25
2019-05-09T23:12:52.092Z,40.26
2019-05-09T23:13:52.024Z,40.80
2019-05-09T23:14:51.875Z,40.43
2019-05-09T23:15:51.870Z,40.30
2019-05-09T23:16:51.866Z,40.34
2019-05-09T23:17:51.860Z,40.28
2019-05-09T23:19:51.847Z,40.43
2019-05-09T23:20:51.847Z,40.59
2019-05-09T23:21:51.838Z,40.32
2019-05-09T23:22:51.836Z,40.37
2019-05-09T23:23:51.827Z,40.37
2019-05-09T23:24:51.816Z,40.36
2019-05-09T23:25:51.809Z,40.37
2019-05-09T23:26:51.805Z,40.54
2019-05-09T23:27:51.796Z,40.31
2019-05-09T23:28:51.791Z,40.30
2019-05-09T23:29:51.782Z,40.37
2019-05-09T23:30:51.778Z,40.29
2019-05-09T23:31:51.769Z,40.35
2019-05-09T23:32:51.764Z,40.34
2019-05-09T23:33:51.758Z,40.59
2019-05-09T23:34:51.953Z,40.36
2019-05-09T23:37:19.467Z,40.59
2019-05-09T23:38:19.462Z,40.59
2019-05-09T23:39:19.455Z,40.45
2019-05-09T23:41:19.442Z,40.40
2019-05-09T23:42:19.438Z,40.35
2019-05-09T23:43:19.431Z,41.12
2019-05-09T23:44:19.421Z,40.33
2019-05-09T23:45:19.414Z,40.41
2019-05-09T23:46:19.457Z,40.35
2019-05-09T23:47:19.402Z,40.39
2019-05-09T23:48:19.395Z,40.40
2019-05-09T23:49:19.388Z,40.47
2019-05-09T23:51:47.231Z,40.65
2019-05-09T23:52:47.098Z,40.36
2019-05-09T23:53:47.094Z,40.40
2019-05-09T23:54:47.833Z,40.23
2019-05-09T23:55:47.082Z,40.31
2019-05-09T23:56:47.074Z,40.30
2019-05-09T23:57:47.071Z,40.70
2019-05-09T23:58:47.061Z,40.40
2019-05-09T23:59:47.058Z,40.54
